Yithion, Greece
Current Conditions -  °F | °C
As of 6:50 PM on Sunday 23 Nov 2014 (Local Time) from LGKL Reporting Station
Few Clouds Few Clouds  
Wind Chill: 54°   Ceiling: Unl
Heat Index: 54°   Visibility: 6mi
Dew Point: 45°   Wind: 0mph
Humidity: 72%   Direction: NA
Pressure: 30.18"   Gusts: NA
Location:  36.76°N, 22.56°E
Report Text: LGKL 231650Z 00000KT 9999 FEW030 12/07 Q1022
Loading
Personal Weather Stations






























Interactive Weather Map New forecast layout! Learn more

10-Day Weather Forecast

Advertisements
Track Severe Weather on mobile